createdAt,value
2022-10-21T00:02:07.198Z,1008.083
2022-10-21T00:07:09.855Z,1008.165
2022-10-21T00:12:12.985Z,1007.982
2022-10-21T00:17:15.622Z,1008.094
2022-10-21T00:22:18.277Z,1008.175
2022-10-21T00:27:20.975Z,1008.323
2022-10-21T00:32:23.677Z,1008.395
2022-10-21T00:37:26.310Z,1008.457
2022-10-21T00:42:28.972Z,1008.358
2022-10-21T00:47:31.802Z,1008.329
2022-10-21T00:52:34.524Z,1008.279
2022-10-21T00:57:37.511Z,1008.138
2022-10-21T01:02:39.904Z,1008.007
2022-10-21T01:07:42.999Z,1007.815
2022-10-21T01:12:45.308Z,1007.829
2022-10-21T01:17:48.236Z,1007.944
2022-10-21T01:22:50.562Z,1007.803
2022-10-21T01:27:53.210Z,1007.698
2022-10-21T01:32:55.643Z,1007.553
2022-10-21T01:37:58.269Z,1007.528
2022-10-21T01:43:01.033Z,1007.698
2022-10-21T01:48:03.546Z,1007.542
2022-10-21T01:58:08.673Z,1007.331
2022-10-21T02:03:11.273Z,1007.207
2022-10-21T02:08:13.939Z,1007.01
2022-10-21T02:13:16.624Z,1006.905
2022-10-21T02:18:19.162Z,1006.835
2022-10-21T02:23:21.678Z,1006.913
2022-10-21T02:28:24.294Z,1006.961
2022-10-21T02:33:26.867Z,1006.842
2022-10-21T02:38:29.628Z,1006.752
2022-10-21T02:43:32.705Z,1006.725
2022-10-21T02:48:35.559Z,1006.533
2022-10-21T02:53:38.227Z,1006.46
2022-10-21T02:58:40.847Z,1006.341
2022-10-21T03:03:43.462Z,1006.228
2022-10-21T03:08:46.476Z,1006.336
2022-10-21T03:13:49.200Z,1006.397
2022-10-21T03:18:51.913Z,1006.479
2022-10-21T03:23:54.736Z,1006.428
2022-10-21T03:34:00.274Z,1006.413
2022-10-21T03:39:02.923Z,1006.345
2022-10-21T03:44:08.146Z,1006.432
2022-10-21T03:49:17.026Z,1006.453
2022-10-21T03:54:13.592Z,1006.325
2022-10-21T04:04:19.463Z,1006.363
2022-10-21T04:09:22.029Z,1006.096
2022-10-21T04:14:24.815Z,1005.915
2022-10-21T04:19:27.557Z,1005.89
2022-10-21T04:24:30.088Z,1005.785
2022-10-21T04:29:32.748Z,1005.694
2022-10-21T04:34:35.349Z,1005.527
2022-10-21T04:39:37.966Z,1005.549
2022-10-21T04:44:40.790Z,1005.425
2022-10-21T04:49:43.231Z,1005.391
2022-10-21T04:54:45.778Z,1005.403
2022-10-21T05:09:53.869Z,1005.052
2022-10-21T05:14:56.547Z,1005.022
2022-10-21T05:19:59.199Z,1005.179
2022-10-21T05:25:01.859Z,1005.124
2022-10-21T05:30:04.419Z,1004.987
2022-10-21T05:35:06.954Z,1004.959
2022-10-21T05:40:09.760Z,1004.94
2022-10-21T05:45:12.417Z,1004.867
2022-10-21T05:50:15.012Z,1004.783
2022-10-21T05:55:17.880Z,1004.799
2022-10-21T06:00:20.479Z,1004.844
2022-10-21T06:05:22.937Z,1004.774
2022-10-21T06:10:26.811Z,1004.778
2022-10-21T06:15:28.438Z,1004.897
2022-10-21T06:20:31.097Z,1004.867
2022-10-21T06:30:36.309Z,1004.808
2022-10-21T06:35:38.883Z,1004.854
2022-10-21T06:40:41.482Z,1004.967
2022-10-21T06:50:50.405Z,1004.899
2022-10-21T06:55:52.882Z,1004.951
2022-10-21T07:00:55.765Z,1004.959
2022-10-21T07:11:01.213Z,1005.002
2022-10-21T07:16:03.863Z,1005.106
2022-10-21T07:21:06.565Z,1005.159
2022-10-21T07:26:09.222Z,1005.145
2022-10-21T07:31:11.860Z,1005.093
2022-10-21T07:41:17.588Z,1005.094
2022-10-21T07:46:20.495Z,1004.998
2022-10-21T07:51:25.654Z,1005.106
2022-10-21T07:56:26.095Z,1005.164
2022-10-21T08:01:28.843Z,1005.02
2022-10-21T08:06:31.656Z,1005.076
2022-10-21T08:11:34.325Z,1005.14
2022-10-21T08:16:36.968Z,1005.055
2022-10-21T08:21:39.783Z,1005.001
2022-10-21T08:26:45.390Z,1004.934
2022-10-21T08:31:48.181Z,1004.839
2022-10-21T08:36:50.844Z,1004.816
2022-10-21T08:41:53.544Z,1004.814
2022-10-21T08:51:59.134Z,1004.686
2022-10-21T08:57:04.573Z,1004.633
2022-10-21T09:02:07.419Z,1004.623
2022-10-21T09:07:10.176Z,1004.508
2022-10-21T09:12:12.792Z,1004.56
2022-10-21T09:17:15.550Z,1004.441
2022-10-21T09:22:35.488Z,1004.331
2022-10-21T09:27:22.828Z,1004.355
2022-10-21T09:32:23.506Z,1004.369
2022-10-21T09:37:26.175Z,1004.314
2022-10-21T09:42:47.213Z,1004.39
2022-10-21T09:47:31.685Z,1004.319
2022-10-21T09:52:34.559Z,1004.318
2022-10-21T09:57:37.559Z,1004.312
2022-10-21T10:02:40.166Z,1004.333
2022-10-21T10:07:42.348Z,1004.301
2022-10-21T10:12:45.114Z,1004.26
2022-10-21T10:17:48.168Z,1004.128
2022-10-21T10:22:50.839Z,1004.028
2022-10-21T10:27:53.751Z,1004.114
2022-10-21T10:32:56.407Z,1004.071
2022-10-21T10:37:58.970Z,1003.965
2022-10-21T10:43:01.955Z,1003.852
2022-10-21T10:48:04.488Z,1003.803
2022-10-21T10:53:07.150Z,1003.779
2022-10-21T10:58:12.590Z,1003.817
2022-10-21T11:03:12.967Z,1003.67
2022-10-21T11:08:15.776Z,1003.684
2022-10-21T11:13:18.774Z,1003.686
2022-10-21T11:18:25.054Z,1003.603
2022-10-21T11:23:23.832Z,1003.611
2022-10-21T11:28:26.523Z,1003.557
2022-10-21T11:33:29.285Z,1003.624
2022-10-21T11:38:31.933Z,1003.519
2022-10-21T11:43:37.412Z,1003.506
2022-10-21T11:48:40.117Z,1003.581
2022-10-21T11:53:42.932Z,1003.502
2022-10-21T12:03:48.404Z,1003.532
2022-10-21T12:08:51.809Z,1003.5
2022-10-21T12:13:57.093Z,1003.475
2022-10-21T12:18:59.901Z,1003.448
2022-10-21T12:24:02.454Z,1003.431
2022-10-21T12:29:04.841Z,1003.481
2022-10-21T12:34:07.563Z,1003.448
2022-10-21T12:39:09.921Z,1003.436
2022-10-21T12:44:12.476Z,1003.453
2022-10-21T12:49:15.265Z,1003.422
2022-10-21T12:54:17.712Z,1003.453
2022-10-21T12:59:20.524Z,1003.409
2022-10-21T13:24:36.580Z,1003.239
2022-10-21T13:29:39.036Z,1003.202
2022-10-21T13:34:42.385Z,1003.23
2022-10-21T13:39:44.150Z,1003.261
2022-10-21T13:54:51.956Z,1003.166
2022-10-21T13:59:54.453Z,1003.091
2022-10-21T14:04:57.346Z,1003.106
2022-10-21T14:09:59.940Z,1003.225
2022-10-21T14:15:02.944Z,1003.277
2022-10-21T14:20:05.716Z,1003.231
2022-10-21T14:25:08.380Z,1003.246
2022-10-21T14:30:10.880Z,1003.193
2022-10-21T14:35:13.642Z,1003.166
2022-10-21T14:45:18.844Z,1003.106
2022-10-21T14:50:21.393Z,1003.09
2022-10-21T14:55:23.999Z,1003.071
2022-10-21T15:00:30.499Z,1003.015
2022-10-21T15:10:34.846Z,1002.87
2022-10-21T15:15:37.618Z,1002.777
2022-10-21T15:20:40.235Z,1002.796
2022-10-21T15:25:42.653Z,1002.743
2022-10-21T15:30:45.364Z,1002.714
2022-10-21T15:35:48.013Z,1002.74
2022-10-21T15:40:51.006Z,1002.704
2022-10-21T15:50:56.476Z,1002.685
2022-10-21T15:56:01.915Z,1002.669
2022-10-21T16:01:04.553Z,1002.672
2022-10-21T16:06:07.080Z,1002.651
2022-10-21T16:11:09.872Z,1002.685
2022-10-21T16:16:12.418Z,1002.772
2022-10-21T16:21:15.351Z,1002.697
2022-10-21T16:26:20.799Z,1002.753
2022-10-21T16:36:26.023Z,1002.886
2022-10-21T16:41:28.647Z,1002.857
2022-10-21T16:46:31.125Z,1002.895
2022-10-21T16:51:36.899Z,1002.819
2022-10-21T16:56:39.478Z,1002.881
2022-10-21T17:01:42.022Z,1002.971
2022-10-21T17:06:47.648Z,1002.956
2022-10-21T17:11:50.368Z,1002.952
2022-10-21T17:16:52.856Z,1003.023
2022-10-21T17:21:55.509Z,1003.084
2022-10-21T17:26:58.020Z,1003.056
2022-10-21T17:32:00.699Z,1003.107
2022-10-21T17:42:05.825Z,1003.237
2022-10-21T17:47:11.173Z,1003.314
2022-10-21T17:57:16.359Z,1003.252
2022-10-21T18:02:19.138Z,1003.234
2022-10-21T18:07:21.656Z,1003.172
2022-10-21T18:17:29.814Z,1003.102
2022-10-21T18:22:35.258Z,1003.097
2022-10-21T18:27:37.971Z,1003.131
2022-10-21T18:32:41.138Z,1003.211
2022-10-21T18:37:43.517Z,1003.254
2022-10-21T18:42:46.120Z,1003.288
2022-10-21T18:47:48.940Z,1003.285
2022-10-21T18:52:51.475Z,1003.283
2022-10-21T18:57:54.555Z,1003.187
2022-10-21T19:03:00.043Z,1003.135
2022-10-21T19:08:02.853Z,1003.075
2022-10-21T19:13:05.300Z,1003.035
2022-10-21T19:18:08.002Z,1003.034
2022-10-21T19:23:10.667Z,1003.056
2022-10-21T19:33:16.178Z,1003.214
2022-10-21T19:38:20.967Z,1003.326
2022-10-21T19:43:21.765Z,1003.386
2022-10-21T19:48:24.786Z,1003.416
2022-10-21T19:53:27.315Z,1003.464
2022-10-21T19:58:30.274Z,1003.398
2022-10-21T20:03:32.932Z,1003.401
2022-10-21T20:13:38.202Z,1003.471
2022-10-21T20:18:40.906Z,1003.447
2022-10-21T20:28:46.182Z,1003.584
2022-10-21T20:33:48.988Z,1003.539
2022-10-21T20:38:51.588Z,1003.463
2022-10-21T20:43:54.252Z,1003.353
2022-10-21T20:59:02.434Z,1003.424
2022-10-21T21:04:05.216Z,1003.496
2022-10-21T21:09:29.281Z,1003.547
2022-10-21T21:19:13.381Z,1003.657
2022-10-21T21:24:18.943Z,1003.771
2022-10-21T21:29:22.130Z,1003.777
2022-10-21T21:34:24.647Z,1003.724
2022-10-21T21:39:27.174Z,1003.686
2022-10-21T21:44:30.128Z,1003.669
2022-10-21T21:49:32.754Z,1003.556
2022-10-21T21:54:35.508Z,1003.559
2022-10-21T22:04:43.794Z,1003.449
2022-10-21T22:14:49.252Z,1003.433
2022-10-21T22:19:53.911Z,1003.48
2022-10-21T22:24:54.489Z,1003.467
2022-10-21T22:29:57.163Z,1003.597
2022-10-21T22:34:59.681Z,1003.638
2022-10-21T22:40:02.169Z,1003.557
2022-10-21T22:45:04.737Z,1003.667
2022-10-21T22:50:07.664Z,1003.738
2022-10-21T22:55:10.308Z,1003.736
2022-10-21T23:00:12.972Z,1003.723
2022-10-21T23:05:15.749Z,1003.846
2022-10-21T23:10:18.236Z,1003.821
2022-10-21T23:15:21.006Z,1003.763
2022-10-21T23:20:26.316Z,1003.735
2022-10-21T23:25:28.977Z,1003.738
2022-10-21T23:30:31.533Z,1003.647
2022-10-21T23:35:34.207Z,1003.474
2022-10-21T23:40:39.734Z,1003.371
2022-10-21T23:45:42.551Z,1003.435
2022-10-21T23:55:50.653Z,1003.319
